createdAt,value
2024-02-02T00:01:12.966Z,4.93
2024-02-02T00:03:40.053Z,5.20
2024-02-02T00:06:07.133Z,5.00
2024-02-02T00:08:33.936Z,5.03
2024-02-02T00:11:01.413Z,4.82
2024-02-02T00:13:28.750Z,5.05
2024-02-02T00:15:55.995Z,4.88
2024-02-02T00:18:22.974Z,5.15
2024-02-02T00:20:50.052Z,4.38
2024-02-02T00:23:17.100Z,4.47
2024-02-02T00:25:43.934Z,4.57
2024-02-02T00:28:10.740Z,4.55
2024-02-02T00:30:38.475Z,3.78
2024-02-02T00:33:07.372Z,4.57
2024-02-02T00:35:34.427Z,4.18
2024-02-02T00:38:01.333Z,3.80
2024-02-02T00:40:30.306Z,3.75
2024-02-02T00:42:57.275Z,3.45
2024-02-02T00:45:24.994Z,3.35
2024-02-02T00:47:52.010Z,3.10
2024-02-02T00:50:19.043Z,2.83
2024-02-02T00:52:46.006Z,2.75
2024-02-02T00:55:12.889Z,2.63
2024-02-02T00:57:39.881Z,3.17
2024-02-02T01:00:11.348Z,3.47
2024-02-02T01:02:40.215Z,2.72
2024-02-02T01:05:07.420Z,3.00
2024-02-02T01:07:35.831Z,2.72
2024-02-02T01:10:02.830Z,2.83
2024-02-02T01:12:29.776Z,2.85
2024-02-02T01:14:56.995Z,2.40
2024-02-02T01:17:24.312Z,2.63
2024-02-02T01:19:51.251Z,2.75
2024-02-02T01:22:18.104Z,2.63
2024-02-02T01:24:45.106Z,2.40
2024-02-02T01:27:11.923Z,2.42
2024-02-02T01:29:38.823Z,2.90
2024-02-02T01:32:06.194Z,3.00
2024-02-02T01:34:33.204Z,3.55
2024-02-02T01:37:00.129Z,3.50
2024-02-02T01:39:27.503Z,2.95
2024-02-02T01:41:55.005Z,2.97
2024-02-02T01:44:21.934Z,2.97
2024-02-02T01:46:49.003Z,3.63
2024-02-02T01:49:16.206Z,3.05
2024-02-02T01:51:43.234Z,3.50
2024-02-02T01:54:10.783Z,2.80
2024-02-02T01:56:37.799Z,2.92
2024-02-02T01:59:06.171Z,2.47
2024-02-02T02:01:33.378Z,2.28
2024-02-02T02:04:01.093Z,2.55
2024-02-02T02:06:28.218Z,2.90
2024-02-02T02:08:55.399Z,4.10
2024-02-02T02:11:22.432Z,4.20
2024-02-02T02:13:49.647Z,3.40
2024-02-02T02:16:16.680Z,3.17
2024-02-02T02:18:52.461Z,2.97
2024-02-02T02:21:27.452Z,2.70
2024-02-02T02:23:55.110Z,2.58
2024-02-02T02:26:22.866Z,2.90
2024-02-02T02:28:50.317Z,2.97
2024-02-02T02:31:18.042Z,3.13
2024-02-02T02:33:45.901Z,3.45
2024-02-02T02:36:15.264Z,3.22
2024-02-02T02:38:44.173Z,3.22
2024-02-02T02:41:11.297Z,3.60
2024-02-02T02:43:38.181Z,3.10
2024-02-02T02:46:05.483Z,2.97
2024-02-02T02:48:32.482Z,2.63
2024-02-02T02:50:59.444Z,2.80
2024-02-02T02:53:26.516Z,2.90
2024-02-02T02:55:53.658Z,2.70
2024-02-02T02:58:20.558Z,2.70
2024-02-02T03:00:47.550Z,2.55
2024-02-02T03:03:14.431Z,2.70
2024-02-02T03:05:41.579Z,2.90
2024-02-02T03:08:08.926Z,2.80
2024-02-02T03:10:35.977Z,2.60
2024-02-02T03:13:02.967Z,2.53
2024-02-02T03:15:33.072Z,2.78
2024-02-02T03:18:01.512Z,2.70
2024-02-02T03:20:28.451Z,2.70
2024-02-02T03:22:56.644Z,2.50
2024-02-02T03:25:23.744Z,2.55
2024-02-02T03:27:50.593Z,2.33
2024-02-02T03:30:17.540Z,2.60
2024-02-02T03:32:45.848Z,2.97
2024-02-02T03:35:13.577Z,3.22
2024-02-02T03:37:40.438Z,3.20
2024-02-02T03:40:07.883Z,3.17
2024-02-02T03:42:34.914Z,2.90
2024-02-02T03:45:01.882Z,2.90
2024-02-02T03:47:28.832Z,2.72
2024-02-02T03:49:55.718Z,3.22
2024-02-02T03:52:24.825Z,3.05
2024-02-02T03:54:52.283Z,2.85
2024-02-02T03:57:19.794Z,2.50
2024-02-02T03:59:46.854Z,2.97
2024-02-02T04:02:14.029Z,3.15
2024-02-02T04:04:40.879Z,2.92
2024-02-02T04:07:07.748Z,2.60
2024-02-02T04:09:34.775Z,2.88
2024-02-02T04:12:01.943Z,3.10
2024-02-02T04:14:28.903Z,2.90
2024-02-02T04:16:55.717Z,3.80
2024-02-02T04:19:23.059Z,3.90
2024-02-02T04:21:50.091Z,3.97
2024-02-02T04:24:18.061Z,3.72
2024-02-02T04:26:44.969Z,5.63
2024-02-02T04:29:12.260Z,5.38
2024-02-02T04:31:39.088Z,5.50
2024-02-02T04:34:07.191Z,4.68
2024-02-02T04:36:34.781Z,5.00
2024-02-02T04:39:01.753Z,6.25
2024-02-02T04:41:28.712Z,6.00
2024-02-02T04:43:55.643Z,5.00
2024-02-02T04:46:22.687Z,4.25
2024-02-02T04:48:49.614Z,4.25
2024-02-02T04:51:16.619Z,4.97
2024-02-02T04:53:43.516Z,5.28
2024-02-02T04:56:10.504Z,6.18
2024-02-02T04:58:37.318Z,6.22
2024-02-02T05:01:04.608Z,6.70
2024-02-02T05:03:33.126Z,7.28
2024-02-02T05:06:00.045Z,7.63
2024-02-02T05:08:27.028Z,6.38
2024-02-02T05:10:53.827Z,7.10
2024-02-02T05:13:20.612Z,6.93
2024-02-02T05:15:47.462Z,7.95
2024-02-02T05:18:15.418Z,6.78
2024-02-02T05:20:42.421Z,7.07
2024-02-02T05:23:09.414Z,6.75
2024-02-02T05:25:36.883Z,6.47
2024-02-02T05:28:05.182Z,7.15
2024-02-02T05:30:33.969Z,6.50
2024-02-02T05:33:01.041Z,7.35
2024-02-02T05:35:28.537Z,6.72
2024-02-02T05:37:55.376Z,5.93
2024-02-02T05:40:22.245Z,6.32
2024-02-02T05:42:49.251Z,5.80
2024-02-02T05:45:16.207Z,5.40
2024-02-02T05:47:43.239Z,5.30
2024-02-02T05:50:10.547Z,4.47
2024-02-02T05:52:37.411Z,4.22
2024-02-02T05:55:04.479Z,4.50
2024-02-02T05:57:31.342Z,4.90
2024-02-02T05:59:58.256Z,4.97
2024-02-02T06:02:25.061Z,4.95
2024-02-02T06:04:52.343Z,4.90
2024-02-02T06:07:19.510Z,5.47
2024-02-02T06:09:46.623Z,4.63
2024-02-02T06:12:13.541Z,5.05
2024-02-02T06:14:41.055Z,4.53
2024-02-02T06:17:10.308Z,4.57
2024-02-02T06:19:37.516Z,4.15
2024-02-02T06:22:04.405Z,4.07
2024-02-02T06:24:31.389Z,4.80
2024-02-02T06:26:58.343Z,4.07
2024-02-02T06:29:27.334Z,4.35
2024-02-02T06:31:55.942Z,4.38
2024-02-02T06:34:22.897Z,4.75
2024-02-02T06:36:49.840Z,5.28
2024-02-02T06:39:16.925Z,5.85
2024-02-02T06:41:43.828Z,5.13
2024-02-02T06:44:10.681Z,5.50
2024-02-02T06:46:37.525Z,4.93
2024-02-02T06:49:04.659Z,6.18
2024-02-02T06:51:31.636Z,6.35
2024-02-02T06:53:58.565Z,6.40
2024-02-02T06:56:32.634Z,6.43
2024-02-02T06:58:59.682Z,6.55
2024-02-02T07:01:27.261Z,5.45
2024-02-02T07:03:54.466Z,5.78
2024-02-02T07:06:21.998Z,4.80
2024-02-02T07:08:49.141Z,4.22
2024-02-02T07:12:05.452Z,3.97
2024-02-02T07:14:48.786Z,4.20
2024-02-02T07:17:22.030Z,3.30
2024-02-02T07:19:49.284Z,5.55
2024-02-02T07:22:45.667Z,5.63
2024-02-02T07:25:13.978Z,4.60
2024-02-02T07:27:40.780Z,4.10
2024-02-02T07:30:14.608Z,4.65
2024-02-02T07:32:41.603Z,4.83
2024-02-02T07:35:34.638Z,5.72
2024-02-02T07:38:07.688Z,4.88
2024-02-02T07:40:59.390Z,4.50
2024-02-02T07:43:26.228Z,4.70
2024-02-02T07:45:53.040Z,4.55
2024-02-02T07:48:20.833Z,4.28
2024-02-02T07:50:47.732Z,3.78
2024-02-02T07:53:14.865Z,3.63
2024-02-02T07:55:41.607Z,3.60
2024-02-02T07:58:08.437Z,5.10
2024-02-02T08:00:35.338Z,5.75
2024-02-02T08:03:02.775Z,5.32
2024-02-02T08:05:29.941Z,4.80
2024-02-02T08:07:56.784Z,4.38
2024-02-02T08:10:23.573Z,4.00
2024-02-02T08:12:50.368Z,3.40
2024-02-02T08:15:18.634Z,3.00
2024-02-02T08:17:46.464Z,3.53
2024-02-02T08:20:14.245Z,3.80
2024-02-02T08:22:41.154Z,3.30
2024-02-02T08:25:08.244Z,3.38
2024-02-02T08:27:35.071Z,3.20
2024-02-02T08:30:02.209Z,3.83
2024-02-02T08:32:31.064Z,3.28
2024-02-02T08:34:59.840Z,3.75
2024-02-02T08:37:26.866Z,3.63
2024-02-02T08:39:54.092Z,3.50
2024-02-02T08:42:24.748Z,3.05
2024-02-02T08:44:56.856Z,3.85
2024-02-02T08:47:24.954Z,5.63
2024-02-02T08:50:00.811Z,4.43
2024-02-02T08:52:35.697Z,4.50
2024-02-02T08:55:07.781Z,3.58
2024-02-02T08:57:37.954Z,4.32
2024-02-02T09:00:17.550Z,4.10
2024-02-02T09:02:52.623Z,4.55
2024-02-02T09:05:20.392Z,4.60
2024-02-02T09:08:13.410Z,5.43
2024-02-02T09:10:44.174Z,4.35
2024-02-02T09:13:24.306Z,4.50
2024-02-02T09:15:51.657Z,5.45
2024-02-02T09:18:35.329Z,5.18
2024-02-02T09:21:04.604Z,5.57
2024-02-02T09:23:36.377Z,6.20
2024-02-02T09:26:16.400Z,5.18
2024-02-02T09:28:47.061Z,6.20
2024-02-02T09:31:24.067Z,6.15
2024-02-02T09:33:52.636Z,5.53
2024-02-02T09:36:25.920Z,6.18
2024-02-02T09:38:58.671Z,6.55
2024-02-02T09:41:47.729Z,5.82
2024-02-02T09:44:36.099Z,6.30
2024-02-02T09:47:20.508Z,6.05
2024-02-02T09:50:15.229Z,6.05
2024-02-02T09:53:00.031Z,4.33
2024-02-02T09:56:08.417Z,5.45
2024-02-02T09:59:02.033Z,4.72
2024-02-02T10:02:18.227Z,4.65
2024-02-02T10:07:34.559Z,5.38
2024-02-02T10:10:46.362Z,5.13
2024-02-02T10:13:39.352Z,5.47
2024-02-02T10:16:21.267Z,4.38
2024-02-02T10:19:29.271Z,5.20
2024-02-02T10:22:07.931Z,5.50
2024-02-02T10:24:58.922Z,5.53
2024-02-02T10:27:55.489Z,5.03
2024-02-02T10:30:50.135Z,4.40
2024-02-02T10:33:43.590Z,4.65
2024-02-02T10:36:22.468Z,5.47
2024-02-02T10:39:31.668Z,5.38
2024-02-02T10:42:17.451Z,5.55
2024-02-02T10:44:59.491Z,5.05
2024-02-02T10:47:38.870Z,4.82
2024-02-02T10:50:33.300Z,5.35
2024-02-02T10:53:09.672Z,5.32
2024-02-02T10:55:51.174Z,5.40
2024-02-02T10:58:34.054Z,4.68
2024-02-02T11:01:23.658Z,5.57
2024-02-02T11:04:05.666Z,4.57
2024-02-02T11:06:46.410Z,4.60
2024-02-02T11:09:25.181Z,4.88
2024-02-02T11:12:06.011Z,4.72
2024-02-02T11:14:58.631Z,3.92
2024-02-02T11:17:39.225Z,3.53
2024-02-02T11:20:20.559Z,3.80
2024-02-02T11:22:55.601Z,3.45
2024-02-02T11:25:34.102Z,3.60
2024-02-02T11:28:09.826Z,2.88
2024-02-02T11:31:00.727Z,3.20
2024-02-02T11:33:36.615Z,2.95
2024-02-02T11:36:09.020Z,3.50
2024-02-02T11:38:52.007Z,3.42
2024-02-02T11:41:26.377Z,4.00
2024-02-02T11:43:57.217Z,3.70
2024-02-02T11:46:28.126Z,3.55
2024-02-02T11:49:07.112Z,3.10
2024-02-02T11:51:39.216Z,3.65
2024-02-02T11:54:17.252Z,3.65
2024-02-02T11:56:46.171Z,3.60
2024-02-02T11:59:20.937Z,3.47
2024-02-02T12:02:06.682Z,4.13
2024-02-02T12:04:41.683Z,3.65
2024-02-02T12:07:17.906Z,3.45
2024-02-02T12:09:49.301Z,4.45
2024-02-02T12:12:34.581Z,3.90
2024-02-02T12:15:02.416Z,4.47
2024-02-02T12:17:30.663Z,4.63
2024-02-02T12:20:01.132Z,4.88
2024-02-02T12:22:30.235Z,4.57
2024-02-02T12:24:57.245Z,5.28
2024-02-02T12:27:24.095Z,4.88
2024-02-02T12:29:51.348Z,3.42
2024-02-02T12:32:18.303Z,4.82
2024-02-02T12:34:46.595Z,5.22
2024-02-02T12:37:13.678Z,4.22
2024-02-02T12:39:40.722Z,5.20
2024-02-02T12:42:08.084Z,5.05
2024-02-02T12:44:35.019Z,5.00
2024-02-02T12:47:05.411Z,5.75
2024-02-02T12:49:32.777Z,4.88
2024-02-02T12:52:01.014Z,5.35
2024-02-02T12:54:28.026Z,6.28
2024-02-02T12:56:55.289Z,5.68
2024-02-02T12:59:24.434Z,5.38
2024-02-02T13:01:51.726Z,6.00
2024-02-02T13:04:20.217Z,6.15
2024-02-02T13:06:47.522Z,5.50
2024-02-02T13:09:25.530Z,5.43
2024-02-02T13:11:59.067Z,5.63
2024-02-02T13:14:29.191Z,5.10
2024-02-02T13:17:12.434Z,6.00
2024-02-02T13:19:48.836Z,6.10
2024-02-02T13:22:27.780Z,5.95
2024-02-02T13:24:58.079Z,5.47
2024-02-02T13:27:30.653Z,5.65
2024-02-02T13:29:59.706Z,5.43
2024-02-02T13:32:28.449Z,6.70
2024-02-02T13:35:00.277Z,5.88
2024-02-02T13:37:31.021Z,5.40
2024-02-02T13:40:00.103Z,5.55
2024-02-02T13:42:27.942Z,5.35
2024-02-02T13:44:54.794Z,6.03
2024-02-02T13:47:21.986Z,5.68
2024-02-02T13:49:54.089Z,5.30
2024-02-02T13:52:21.021Z,5.57
2024-02-02T13:54:53.790Z,5.43
2024-02-02T13:57:20.978Z,6.13
2024-02-02T13:59:47.985Z,5.15
2024-02-02T14:02:14.853Z,4.82
2024-02-02T14:04:43.199Z,5.20
2024-02-02T14:07:17.261Z,5.03
2024-02-02T14:09:44.318Z,4.95
2024-02-02T14:12:12.162Z,5.22
2024-02-02T14:14:39.317Z,5.53
2024-02-02T14:17:07.184Z,5.20
2024-02-02T14:19:34.911Z,4.85
2024-02-02T14:22:08.920Z,6.20
2024-02-02T14:24:51.187Z,4.97
2024-02-02T14:27:18.317Z,4.85
2024-02-02T14:29:45.771Z,5.57
2024-02-02T14:32:12.852Z,5.00
2024-02-02T14:34:39.944Z,5.28
2024-02-02T14:37:09.626Z,5.13
2024-02-02T14:39:36.646Z,5.20
2024-02-02T14:42:03.989Z,4.88
2024-02-02T14:44:30.968Z,5.15
2024-02-02T14:46:58.266Z,4.47
2024-02-02T14:49:27.079Z,4.80
2024-02-02T14:51:55.226Z,4.47
2024-02-02T14:54:22.668Z,4.57
2024-02-02T14:56:49.668Z,5.20
2024-02-02T14:59:22.328Z,4.82
2024-02-02T15:01:49.666Z,4.72
2024-02-02T15:04:17.348Z,4.50
2024-02-02T15:06:45.023Z,4.03
2024-02-02T15:09:16.662Z,4.10
2024-02-02T15:11:45.280Z,4.07
2024-02-02T15:14:12.781Z,3.67
2024-02-02T15:16:39.708Z,4.13
2024-02-02T15:19:06.737Z,3.80
2024-02-02T15:21:34.289Z,4.57
2024-02-02T15:24:01.858Z,4.03
2024-02-02T15:26:29.136Z,3.65
2024-02-02T15:28:56.099Z,4.32
2024-02-02T15:31:23.644Z,4.22
2024-02-02T15:33:50.686Z,3.53
2024-02-02T15:36:17.776Z,3.70
2024-02-02T15:39:05.717Z,3.17
2024-02-02T15:41:31.471Z,3.28
2024-02-02T15:43:58.305Z,3.45
2024-02-02T15:46:25.378Z,3.10
2024-02-02T15:48:53.156Z,3.97
2024-02-02T15:51:21.065Z,3.80
2024-02-02T15:53:47.995Z,3.58
2024-02-02T15:56:18.939Z,3.20
2024-02-02T15:58:45.837Z,3.38
2024-02-02T16:01:13.484Z,3.15
2024-02-02T16:03:41.604Z,3.38
2024-02-02T16:06:10.310Z,3.55
2024-02-02T16:08:38.064Z,3.22
2024-02-02T16:11:05.888Z,2.95
2024-02-02T16:13:33.025Z,2.35
2024-02-02T16:16:00.506Z,2.97
2024-02-02T16:18:27.754Z,2.83
2024-02-02T16:20:54.869Z,3.10
2024-02-02T16:23:21.829Z,2.83
2024-02-02T16:25:48.749Z,2.33
2024-02-02T16:28:15.722Z,2.45
2024-02-02T16:30:43.626Z,2.78
2024-02-02T16:33:10.832Z,2.38
2024-02-02T16:35:38.036Z,2.67
2024-02-02T16:38:05.481Z,2.70
2024-02-02T16:40:32.417Z,2.65
2024-02-02T16:42:59.488Z,2.55
2024-02-02T16:45:26.442Z,2.88
2024-02-02T16:47:54.527Z,2.83
2024-02-02T16:50:21.976Z,2.40
2024-02-02T16:52:48.742Z,2.78
2024-02-02T16:55:15.771Z,2.30
2024-02-02T16:57:42.680Z,2.83
2024-02-02T17:00:10.043Z,2.20
2024-02-02T17:02:37.175Z,2.53
2024-02-02T17:05:05.146Z,2.55
2024-02-02T17:07:32.098Z,2.58
2024-02-02T17:09:59.300Z,2.03
2024-02-02T17:12:26.763Z,2.72
2024-02-02T17:14:53.773Z,2.63
2024-02-02T17:17:20.750Z,2.75
2024-02-02T17:19:47.702Z,3.00
2024-02-02T17:22:14.562Z,3.42
2024-02-02T17:24:41.723Z,2.80
2024-02-02T17:27:08.675Z,3.10
2024-02-02T17:29:39.764Z,2.45
2024-02-02T17:32:07.564Z,2.00
2024-02-02T17:34:34.641Z,2.42
2024-02-02T17:37:01.564Z,2.40
2024-02-02T17:39:28.439Z,2.70
2024-02-02T17:41:55.376Z,2.50
2024-02-02T17:44:24.770Z,2.78
2024-02-02T17:46:53.771Z,2.50
2024-02-02T17:49:20.863Z,2.53
2024-02-02T17:51:47.900Z,2.50
2024-02-02T17:54:14.850Z,2.40
2024-02-02T17:56:41.772Z,3.03
2024-02-02T17:59:10.363Z,2.60
2024-02-02T18:01:38.079Z,2.65
2024-02-02T18:04:06.875Z,2.92
2024-02-02T18:06:34.654Z,2.53
2024-02-02T18:09:01.695Z,2.85
2024-02-02T18:11:28.708Z,2.90
2024-02-02T18:13:55.623Z,3.03
2024-02-02T18:16:22.462Z,2.60
2024-02-02T18:18:49.612Z,2.60
2024-02-02T18:21:16.794Z,2.38
2024-02-02T18:23:43.933Z,2.75
2024-02-02T18:26:11.095Z,2.50
2024-02-02T18:28:37.990Z,2.40
2024-02-02T18:31:05.355Z,2.50
2024-02-02T18:33:32.377Z,2.67
2024-02-02T18:35:59.338Z,2.72
2024-02-02T18:38:26.134Z,2.50
2024-02-02T18:40:53.019Z,2.95
2024-02-02T18:43:20.018Z,2.17
2024-02-02T18:45:47.313Z,2.67
2024-02-02T18:48:14.442Z,2.40
2024-02-02T18:50:41.408Z,2.60
2024-02-02T18:53:08.720Z,2.65
2024-02-02T18:55:35.659Z,2.83
2024-02-02T18:58:02.530Z,3.05
2024-02-02T19:00:29.424Z,2.90
2024-02-02T19:02:56.809Z,2.85
2024-02-02T19:05:23.793Z,2.88
2024-02-02T19:07:50.697Z,2.40
2024-02-02T19:10:19.889Z,2.72
2024-02-02T19:12:47.038Z,2.83
2024-02-02T19:15:14.057Z,2.78
2024-02-02T19:17:42.538Z,2.85
2024-02-02T19:20:11.577Z,3.03
2024-02-02T19:22:39.724Z,3.03
2024-02-02T19:25:07.224Z,3.20
2024-02-02T19:27:34.278Z,3.28
2024-02-02T19:30:01.292Z,3.13
2024-02-02T19:32:28.465Z,3.50
2024-02-02T19:34:55.565Z,3.55
2024-02-02T19:37:22.623Z,3.33
2024-02-02T19:39:49.634Z,3.20
2024-02-02T19:42:16.581Z,3.75
2024-02-02T19:44:44.011Z,3.67
2024-02-02T19:47:12.427Z,3.47
2024-02-02T19:49:39.642Z,3.47
2024-02-02T19:52:06.838Z,3.50
2024-02-02T19:54:36.757Z,3.40
2024-02-02T19:57:06.860Z,3.05
2024-02-02T19:59:33.873Z,3.40
2024-02-02T20:02:02.958Z,3.10
2024-02-02T20:04:30.935Z,3.30
2024-02-02T20:06:58.445Z,3.38
2024-02-02T20:09:25.371Z,3.15
2024-02-02T20:11:52.303Z,3.20
2024-02-02T20:14:19.322Z,2.70
2024-02-02T20:16:46.259Z,3.50
2024-02-02T20:19:13.384Z,2.75
2024-02-02T20:21:40.739Z,2.85
2024-02-02T20:24:08.125Z,3.22
2024-02-02T20:26:35.019Z,2.90
2024-02-02T20:29:01.868Z,2.60
2024-02-02T20:31:29.020Z,3.08
2024-02-02T20:33:57.796Z,3.30
2024-02-02T20:36:28.554Z,2.72
2024-02-02T20:38:55.738Z,2.90
2024-02-02T20:41:26.726Z,3.33
2024-02-02T20:43:58.740Z,2.80
2024-02-02T20:46:25.872Z,3.05
2024-02-02T20:48:53.062Z,3.30
2024-02-02T20:51:20.184Z,3.38
2024-02-02T20:53:47.011Z,2.97
2024-02-02T20:56:14.814Z,3.58
2024-02-02T20:58:41.736Z,2.90
2024-02-02T21:01:08.719Z,3.83
2024-02-02T21:03:36.490Z,2.40
2024-02-02T21:06:03.769Z,3.03
2024-02-02T21:08:30.876Z,3.08
2024-02-02T21:10:57.880Z,3.03
2024-02-02T21:13:24.817Z,3.17
2024-02-02T21:15:53.542Z,3.28
2024-02-02T21:18:21.475Z,3.10
2024-02-02T21:20:51.162Z,3.05
2024-02-02T21:23:19.188Z,3.22
2024-02-02T21:25:46.930Z,3.45
2024-02-02T21:28:14.825Z,3.55
2024-02-02T21:30:44.934Z,3.08
2024-02-02T21:33:12.807Z,3.38
2024-02-02T21:35:40.934Z,2.95
2024-02-02T21:38:07.863Z,3.45
2024-02-02T21:40:34.779Z,3.10
2024-02-02T21:43:01.633Z,3.35
2024-02-02T21:45:29.955Z,3.45
2024-02-02T21:47:57.851Z,3.38
2024-02-02T21:50:25.331Z,2.80
2024-02-02T21:52:52.461Z,3.83
2024-02-02T21:55:19.390Z,3.47
2024-02-02T21:57:46.325Z,2.85
2024-02-02T22:00:14.381Z,3.70
2024-02-02T22:02:41.593Z,3.42
2024-02-02T22:05:08.620Z,3.70
2024-02-02T22:07:39.076Z,3.50
2024-02-02T22:10:08.181Z,3.55
2024-02-02T22:12:35.275Z,3.40
2024-02-02T22:15:02.353Z,3.90
2024-02-02T22:17:29.471Z,3.65
2024-02-02T22:19:56.472Z,3.97
2024-02-02T22:22:23.363Z,3.95
2024-02-02T22:24:50.261Z,3.90
2024-02-02T22:27:22.292Z,3.75
2024-02-02T22:29:50.903Z,3.90
2024-02-02T22:32:21.580Z,4.00
2024-02-02T22:34:49.494Z,4.45
2024-02-02T22:37:16.416Z,3.92
2024-02-02T22:39:43.478Z,4.32
2024-02-02T22:42:10.596Z,4.07
2024-02-02T22:44:37.516Z,4.25
2024-02-02T22:47:04.596Z,4.10
2024-02-02T22:49:33.105Z,3.90
2024-02-02T22:52:00.224Z,4.45
2024-02-02T22:54:27.088Z,4.35
2024-02-02T22:56:54.055Z,4.93
2024-02-02T22:59:20.921Z,4.95
2024-02-02T23:01:47.948Z,5.18
2024-02-02T23:04:14.970Z,4.45
2024-02-02T23:06:42.176Z,4.82
2024-02-02T23:09:09.130Z,5.32
2024-02-02T23:11:36.129Z,4.57
2024-02-02T23:14:03.017Z,4.50
2024-02-02T23:16:29.935Z,4.97
2024-02-02T23:18:56.881Z,5.40
2024-02-02T23:21:23.818Z,5.68
2024-02-02T23:23:50.637Z,5.28
2024-02-02T23:26:17.521Z,5.50
2024-02-02T23:28:44.457Z,5.68
2024-02-02T23:31:11.230Z,5.47
2024-02-02T23:33:38.124Z,5.65
2024-02-02T23:36:05.380Z,5.65
2024-02-02T23:38:32.325Z,5.70
2024-02-02T23:41:00.397Z,5.95
2024-02-02T23:43:27.366Z,6.47
2024-02-02T23:45:54.392Z,5.57
2024-02-02T23:48:21.696Z,6.07
2024-02-02T23:50:48.751Z,6.15
2024-02-02T23:53:15.742Z,5.55
2024-02-02T23:55:42.561Z,5.70
2024-02-02T23:58:09.582Z,5.70
